createdAt,value
2022-12-01T00:03:46.981Z,5
2022-12-01T00:18:47.019Z,5
2022-12-01T00:33:46.961Z,5.1
2022-12-01T00:48:46.999Z,5.1
2022-12-01T01:03:47.012Z,4.9
2022-12-01T01:18:46.997Z,4.9
2022-12-01T01:33:46.984Z,5
2022-12-01T01:48:46.989Z,4.9
2022-12-01T02:03:46.990Z,4.9
2022-12-01T02:18:47.008Z,4.9
2022-12-01T02:33:47.015Z,4.8
2022-12-01T02:48:46.987Z,4.8
2022-12-01T03:03:47.020Z,4.8
2022-12-01T03:18:46.992Z,4.8
2022-12-01T03:33:46.984Z,4.8
2022-12-01T03:48:46.980Z,4.8
2022-12-01T04:03:46.987Z,4.8
2022-12-01T04:18:46.988Z,4.7
2022-12-01T04:33:46.983Z,4.8
2022-12-01T04:48:47.004Z,4.8
2022-12-01T05:03:47.011Z,4.8
2022-12-01T05:18:47.084Z,4.8
2022-12-01T05:33:46.990Z,4.8
2022-12-01T05:48:47.005Z,4.8
2022-12-01T06:03:47.049Z,4.6
2022-12-01T06:18:46.984Z,4.6
2022-12-01T06:33:46.990Z,4.6
2022-12-01T06:48:46.991Z,4.6
2022-12-01T07:03:47.008Z,4.6
2022-12-01T07:18:46.980Z,4.6
2022-12-01T07:33:47.017Z,4.6
2022-12-01T07:48:46.985Z,4.5
2022-12-01T08:03:47.016Z,4.5
2022-12-01T08:18:47.022Z,4.4
2022-12-01T08:33:47.003Z,4.4
2022-12-01T08:48:46.979Z,4.4
2022-12-01T09:03:46.986Z,4.4
2022-12-01T09:18:47.033Z,4.6
2022-12-01T09:33:46.961Z,4.6
2022-12-01T09:48:47.010Z,4.7
2022-12-01T10:03:46.952Z,4.8
2022-12-01T10:18:46.985Z,4.8
2022-12-01T10:33:47.214Z,4.8
2022-12-01T10:48:47.008Z,4.9
2022-12-01T11:03:47.055Z,4.9
2022-12-01T11:18:47.069Z,4.9
2022-12-01T11:33:47.017Z,4.9
2022-12-01T11:48:47.008Z,5
2022-12-01T12:03:47.045Z,5
2022-12-01T12:18:46.984Z,4.9
2022-12-01T12:33:47.023Z,4.9
2022-12-01T12:49:03.819Z,4.9
2022-12-01T13:03:47.005Z,4.8
2022-12-01T13:18:46.982Z,4.9
2022-12-01T13:33:47.029Z,4.8
2022-12-01T13:48:46.989Z,4.9
2022-12-01T14:03:47.019Z,4.8
2022-12-01T14:18:47.014Z,4.8
2022-12-01T14:33:46.995Z,4.8
2022-12-01T14:48:46.987Z,4.8
2022-12-01T15:03:47.019Z,4.8
2022-12-01T15:18:46.989Z,4.8
2022-12-01T15:33:47.019Z,4.8
2022-12-01T15:48:47.018Z,4.7
2022-12-01T16:03:46.996Z,4.6
2022-12-01T16:18:46.985Z,4.7
2022-12-01T16:33:46.992Z,4.7
2022-12-01T16:48:47.029Z,4.6
2022-12-01T17:03:47.007Z,4.6
2022-12-01T17:18:46.991Z,4.6
2022-12-01T17:33:47.024Z,4.6
2022-12-01T17:48:46.981Z,4.6
2022-12-01T18:03:47.023Z,4.6
2022-12-01T18:18:46.946Z,4.6
2022-12-01T18:33:46.981Z,4.5
2022-12-01T18:48:47.008Z,4.4
2022-12-01T19:03:47.036Z,4.4
2022-12-01T19:18:46.987Z,4.3
2022-12-01T19:33:46.989Z,4.4
2022-12-01T19:48:47.017Z,4.4
2022-12-01T20:03:47.010Z,4.3
2022-12-01T20:18:47.032Z,4.3
2022-12-01T20:33:47.042Z,4.2
2022-12-01T20:48:47.013Z,4.1
2022-12-01T21:03:46.987Z,4.1
2022-12-01T21:18:46.954Z,4.1
2022-12-01T21:33:46.981Z,4.1
2022-12-01T21:48:47.152Z,4
2022-12-01T22:03:46.988Z,4.1
2022-12-01T22:18:46.989Z,4.1
2022-12-01T22:33:47.005Z,4
2022-12-01T22:48:46.997Z,3.9
2022-12-01T23:03:46.980Z,3.7
2022-12-01T23:18:46.955Z,3.6
2022-12-01T23:33:47.010Z,3.6
2022-12-01T23:48:47.020Z,3.5
